sensor_id;sensor_type;location;lat;lon;timestamp;P1;durP1;ratioP1;P2;durP2;ratioP2
2558;SDS011;1289;53.488;10.006;2023-12-29T00:02:08;7.33;;;3.90;;
2558;SDS011;1289;53.488;10.006;2023-12-29T00:04:35;7.47;;;4.50;;
2558;SDS011;1289;53.488;10.006;2023-12-29T00:07:03;6.07;;;4.20;;
2558;SDS011;1289;53.488;10.006;2023-12-29T00:09:30;7.30;;;4.73;;
2558;SDS011;1289;53.488;10.006;2023-12-29T00:12:03;5.33;;;3.70;;
2558;SDS011;1289;53.488;10.006;2023-12-29T00:14:30;5.27;;;4.27;;
2558;SDS011;1289;53.488;10.006;2023-12-29T00:16:57;6.07;;;4.20;;
2558;SDS011;1289;53.488;10.006;2023-12-29T00:19:23;10.63;;;4.27;;
2558;SDS011;1289;53.488;10.006;2023-12-29T00:21:50;5.43;;;4.20;;
2558;SDS011;1289;53.488;10.006;2023-12-29T00:24:18;5.27;;;4.20;;
2558;SDS011;1289;53.488;10.006;2023-12-29T00:26:45;6.13;;;4.80;;
2558;SDS011;1289;53.488;10.006;2023-12-29T00:29:12;9.57;;;4.80;;
2558;SDS011;1289;53.488;10.006;2023-12-29T00:31:40;7.43;;;5.00;;
2558;SDS011;1289;53.488;10.006;2023-12-29T00:34:06;8.30;;;4.30;;
2558;SDS011;1289;53.488;10.006;2023-12-29T00:36:33;8.90;;;5.30;;
2558;SDS011;1289;53.488;10.006;2023-12-29T00:39:00;11.73;;;4.80;;
2558;SDS011;1289;53.488;10.006;2023-12-29T00:41:28;9.77;;;5.47;;
2558;SDS011;1289;53.488;10.006;2023-12-29T00:43:54;5.60;;;4.80;;
2558;SDS011;1289;53.488;10.006;2023-12-29T00:46:21;6.00;;;4.37;;
2558;SDS011;1289;53.488;10.006;2023-12-29T00:48:48;7.33;;;3.93;;
2558;SDS011;1289;53.488;10.006;2023-12-29T00:51:14;6.30;;;4.50;;
2558;SDS011;1289;53.488;10.006;2023-12-29T00:53:41;8.33;;;4.47;;
2558;SDS011;1289;53.488;10.006;2023-12-29T00:56:09;6.40;;;4.67;;
2558;SDS011;1289;53.488;10.006;2023-12-29T00:58:38;9.47;;;4.40;;
2558;SDS011;1289;53.488;10.006;2023-12-29T01:01:05;7.43;;;4.07;;
2558;SDS011;1289;53.488;10.006;2023-12-29T01:03:33;4.43;;;3.87;;
2558;SDS011;1289;53.488;10.006;2023-12-29T01:06:00;6.33;;;3.90;;
2558;SDS011;1289;53.488;10.006;2023-12-29T01:08:26;5.77;;;3.80;;
2558;SDS011;1289;53.488;10.006;2023-12-29T01:10:53;8.13;;;4.10;;
2558;SDS011;1289;53.488;10.006;2023-12-29T01:13:19;6.03;;;4.97;;
2558;SDS011;1289;53.488;10.006;2023-12-29T01:15:47;9.10;;;3.93;;
2558;SDS011;1289;53.488;10.006;2023-12-29T01:18:14;7.20;;;5.03;;
2558;SDS011;1289;53.488;10.006;2023-12-29T01:20:40;5.97;;;4.23;;
2558;SDS011;1289;53.488;10.006;2023-12-29T01:23:08;8.53;;;4.90;;
2558;SDS011;1289;53.488;10.006;2023-12-29T01:25:34;4.80;;;4.00;;
2558;SDS011;1289;53.488;10.006;2023-12-29T01:28:01;8.93;;;4.17;;
2558;SDS011;1289;53.488;10.006;2023-12-29T01:30:27;9.73;;;4.83;;
2558;SDS011;1289;53.488;10.006;2023-12-29T01:32:55;7.40;;;4.20;;
2558;SDS011;1289;53.488;10.006;2023-12-29T01:35:22;6.40;;;4.20;;
2558;SDS011;1289;53.488;10.006;2023-12-29T01:37:48;6.17;;;4.00;;
2558;SDS011;1289;53.488;10.006;2023-12-29T01:40:15;15.97;;;5.50;;
2558;SDS011;1289;53.488;10.006;2023-12-29T01:42:42;9.27;;;4.30;;
2558;SDS011;1289;53.488;10.006;2023-12-29T01:45:10;7.10;;;4.47;;
2558;SDS011;1289;53.488;10.006;2023-12-29T01:47:46;5.37;;;4.03;;
2558;SDS011;1289;53.488;10.006;2023-12-29T01:50:14;7.67;;;4.70;;
2558;SDS011;1289;53.488;10.006;2023-12-29T01:52:41;5.77;;;3.97;;
2558;SDS011;1289;53.488;10.006;2023-12-29T01:55:08;6.30;;;4.30;;
2558;SDS011;1289;53.488;10.006;2023-12-29T01:57:37;5.20;;;3.90;;
2558;SDS011;1289;53.488;10.006;2023-12-29T02:00:04;5.33;;;4.47;;
2558;SDS011;1289;53.488;10.006;2023-12-29T02:02:37;7.50;;;4.30;;
2558;SDS011;1289;53.488;10.006;2023-12-29T02:05:04;5.13;;;4.10;;
2558;SDS011;1289;53.488;10.006;2023-12-29T02:07:33;6.17;;;4.20;;
2558;SDS011;1289;53.488;10.006;2023-12-29T02:09:59;13.03;;;4.93;;
2558;SDS011;1289;53.488;10.006;2023-12-29T02:12:27;8.20;;;4.10;;
2558;SDS011;1289;53.488;10.006;2023-12-29T02:14:54;5.70;;;4.60;;
2558;SDS011;1289;53.488;10.006;2023-12-29T02:17:22;6.97;;;4.43;;
2558;SDS011;1289;53.488;10.006;2023-12-29T02:19:52;5.80;;;4.03;;
2558;SDS011;1289;53.488;10.006;2023-12-29T02:22:19;8.13;;;4.30;;
2558;SDS011;1289;53.488;10.006;2023-12-29T02:24:47;8.23;;;4.03;;
2558;SDS011;1289;53.488;10.006;2023-12-29T02:27:18;4.30;;;3.90;;
2558;SDS011;1289;53.488;10.006;2023-12-29T02:29:48;4.63;;;4.20;;
2558;SDS011;1289;53.488;10.006;2023-12-29T02:32:23;6.13;;;4.20;;
2558;SDS011;1289;53.488;10.006;2023-12-29T02:34:53;4.83;;;4.00;;
2558;SDS011;1289;53.488;10.006;2023-12-29T02:37:20;4.93;;;4.13;;
2558;SDS011;1289;53.488;10.006;2023-12-29T02:39:48;7.83;;;4.47;;
2558;SDS011;1289;53.488;10.006;2023-12-29T02:42:14;3.93;;;3.57;;
2558;SDS011;1289;53.488;10.006;2023-12-29T02:44:41;4.80;;;3.93;;
2558;SDS011;1289;53.488;10.006;2023-12-29T02:47:08;9.70;;;3.80;;
2558;SDS011;1289;53.488;10.006;2023-12-29T02:49:34;6.70;;;4.20;;
2558;SDS011;1289;53.488;10.006;2023-12-29T02:52:02;8.70;;;3.77;;
2558;SDS011;1289;53.488;10.006;2023-12-29T02:54:29;4.17;;;3.60;;
2558;SDS011;1289;53.488;10.006;2023-12-29T02:56:57;5.37;;;3.87;;
2558;SDS011;1289;53.488;10.006;2023-12-29T02:59:23;4.27;;;3.80;;
2558;SDS011;1289;53.488;10.006;2023-12-29T03:01:50;5.40;;;4.13;;
2558;SDS011;1289;53.488;10.006;2023-12-29T03:04:17;5.00;;;3.83;;
2558;SDS011;1289;53.488;10.006;2023-12-29T03:06:43;5.20;;;3.20;;
2558;SDS011;1289;53.488;10.006;2023-12-29T03:09:10;6.80;;;3.63;;
2558;SDS011;1289;53.488;10.006;2023-12-29T03:11:36;6.30;;;3.27;;
2558;SDS011;1289;53.488;10.006;2023-12-29T03:14:04;5.70;;;3.33;;
2558;SDS011;1289;53.488;10.006;2023-12-29T03:16:31;5.23;;;3.70;;
2558;SDS011;1289;53.488;10.006;2023-12-29T03:18:57;5.80;;;3.73;;
2558;SDS011;1289;53.488;10.006;2023-12-29T03:21:24;3.80;;;3.10;;
2558;SDS011;1289;53.488;10.006;2023-12-29T03:23:51;3.37;;;3.07;;
2558;SDS011;1289;53.488;10.006;2023-12-29T03:26:17;4.53;;;3.20;;
2558;SDS011;1289;53.488;10.006;2023-12-29T03:28:44;6.90;;;3.30;;
2558;SDS011;1289;53.488;10.006;2023-12-29T03:31:12;4.70;;;2.97;;
2558;SDS011;1289;53.488;10.006;2023-12-29T03:33:39;3.60;;;3.30;;
2558;SDS011;1289;53.488;10.006;2023-12-29T03:36:06;8.27;;;3.03;;
2558;SDS011;1289;53.488;10.006;2023-12-29T03:38:36;5.80;;;3.37;;
2558;SDS011;1289;53.488;10.006;2023-12-29T03:41:02;3.50;;;3.20;;
2558;SDS011;1289;53.488;10.006;2023-12-29T03:43:29;5.80;;;2.93;;
2558;SDS011;1289;53.488;10.006;2023-12-29T03:45:56;3.20;;;2.90;;
2558;SDS011;1289;53.488;10.006;2023-12-29T03:48:24;4.87;;;3.50;;
2558;SDS011;1289;53.488;10.006;2023-12-29T03:50:50;3.43;;;3.13;;
2558;SDS011;1289;53.488;10.006;2023-12-29T03:53:17;3.87;;;2.93;;
2558;SDS011;1289;53.488;10.006;2023-12-29T03:55:44;5.77;;;3.70;;
2558;SDS011;1289;53.488;10.006;2023-12-29T03:58:11;3.67;;;3.37;;
2558;SDS011;1289;53.488;10.006;2023-12-29T04:00:37;5.63;;;3.50;;
2558;SDS011;1289;53.488;10.006;2023-12-29T04:03:06;8.73;;;3.90;;
2558;SDS011;1289;53.488;10.006;2023-12-29T04:05:34;9.63;;;3.60;;
2558;SDS011;1289;53.488;10.006;2023-12-29T04:08:01;5.40;;;3.73;;
2558;SDS011;1289;53.488;10.006;2023-12-29T04:10:28;3.20;;;2.90;;
2558;SDS011;1289;53.488;10.006;2023-12-29T04:12:56;5.53;;;3.30;;
2558;SDS011;1289;53.488;10.006;2023-12-29T04:15:22;4.43;;;3.17;;
2558;SDS011;1289;53.488;10.006;2023-12-29T04:17:49;3.80;;;2.97;;
2558;SDS011;1289;53.488;10.006;2023-12-29T04:20:16;3.10;;;2.70;;
2558;SDS011;1289;53.488;10.006;2023-12-29T04:22:44;3.30;;;2.57;;
2558;SDS011;1289;53.488;10.006;2023-12-29T04:25:10;2.50;;;2.30;;
2558;SDS011;1289;53.488;10.006;2023-12-29T04:27:37;2.83;;;2.17;;
2558;SDS011;1289;53.488;10.006;2023-12-29T04:30:05;2.77;;;2.37;;
2558;SDS011;1289;53.488;10.006;2023-12-29T04:32:32;2.97;;;2.67;;
2558;SDS011;1289;53.488;10.006;2023-12-29T04:34:59;2.57;;;2.37;;
2558;SDS011;1289;53.488;10.006;2023-12-29T04:37:25;2.73;;;2.30;;
2558;SDS011;1289;53.488;10.006;2023-12-29T04:39:53;6.00;;;3.20;;
2558;SDS011;1289;53.488;10.006;2023-12-29T04:42:20;3.40;;;2.50;;
2558;SDS011;1289;53.488;10.006;2023-12-29T04:44:47;2.43;;;2.23;;
2558;SDS011;1289;53.488;10.006;2023-12-29T04:47:13;3.00;;;2.70;;
2558;SDS011;1289;53.488;10.006;2023-12-29T04:49:40;2.80;;;2.60;;
2558;SDS011;1289;53.488;10.006;2023-12-29T04:52:06;3.10;;;2.80;;
2558;SDS011;1289;53.488;10.006;2023-12-29T04:54:33;3.57;;;2.70;;
2558;SDS011;1289;53.488;10.006;2023-12-29T04:57:01;6.53;;;2.70;;
2558;SDS011;1289;53.488;10.006;2023-12-29T04:59:27;2.80;;;2.40;;
2558;SDS011;1289;53.488;10.006;2023-12-29T05:01:54;5.63;;;2.53;;
2558;SDS011;1289;53.488;10.006;2023-12-29T05:04:20;2.37;;;2.17;;
2558;SDS011;1289;53.488;10.006;2023-12-29T05:06:47;2.70;;;2.50;;
2558;SDS011;1289;53.488;10.006;2023-12-29T05:09:14;3.03;;;2.63;;
2558;SDS011;1289;53.488;10.006;2023-12-29T05:11:40;7.50;;;2.77;;
2558;SDS011;1289;53.488;10.006;2023-12-29T05:14:08;4.00;;;2.40;;
2558;SDS011;1289;53.488;10.006;2023-12-29T05:16:35;4.70;;;2.67;;
2558;SDS011;1289;53.488;10.006;2023-12-29T05:19:02;8.50;;;2.83;;
2558;SDS011;1289;53.488;10.006;2023-12-29T05:21:28;3.33;;;2.70;;
2558;SDS011;1289;53.488;10.006;2023-12-29T05:23:56;4.90;;;3.00;;
2558;SDS011;1289;53.488;10.006;2023-12-29T05:26:23;3.90;;;2.77;;
2558;SDS011;1289;53.488;10.006;2023-12-29T05:28:49;3.13;;;2.67;;
2558;SDS011;1289;53.488;10.006;2023-12-29T05:31:17;3.00;;;2.80;;
2558;SDS011;1289;53.488;10.006;2023-12-29T05:33:44;5.83;;;3.10;;
2558;SDS011;1289;53.488;10.006;2023-12-29T05:36:11;4.70;;;2.57;;
2558;SDS011;1289;53.488;10.006;2023-12-29T05:38:37;3.20;;;2.57;;
2558;SDS011;1289;53.488;10.006;2023-12-29T05:41:06;4.00;;;3.60;;
2558;SDS011;1289;53.488;10.006;2023-12-29T05:43:33;3.53;;;2.60;;
2558;SDS011;1289;53.488;10.006;2023-12-29T05:46:00;4.23;;;2.77;;
2558;SDS011;1289;53.488;10.006;2023-12-29T05:48:29;3.43;;;2.67;;
2558;SDS011;1289;53.488;10.006;2023-12-29T05:50:55;5.90;;;3.20;;
2558;SDS011;1289;53.488;10.006;2023-12-29T05:53:22;5.10;;;3.10;;
2558;SDS011;1289;53.488;10.006;2023-12-29T05:55:48;7.07;;;3.00;;
2558;SDS011;1289;53.488;10.006;2023-12-29T05:58:15;6.53;;;2.90;;
2558;SDS011;1289;53.488;10.006;2023-12-29T06:00:42;3.50;;;3.20;;
2558;SDS011;1289;53.488;10.006;2023-12-29T06:03:09;6.30;;;3.30;;
2558;SDS011;1289;53.488;10.006;2023-12-29T06:05:37;4.60;;;3.40;;
2558;SDS011;1289;53.488;10.006;2023-12-29T06:08:04;4.60;;;3.07;;
2558;SDS011;1289;53.488;10.006;2023-12-29T06:10:32;8.07;;;3.00;;
2558;SDS011;1289;53.488;10.006;2023-12-29T06:13:01;7.23;;;3.37;;
2558;SDS011;1289;53.488;10.006;2023-12-29T06:15:27;6.20;;;3.10;;
2558;SDS011;1289;53.488;10.006;2023-12-29T06:17:54;3.50;;;3.20;;
2558;SDS011;1289;53.488;10.006;2023-12-29T06:20:47;4.77;;;3.30;;
2558;SDS011;1289;53.488;10.006;2023-12-29T06:23:14;7.90;;;4.13;;
2558;SDS011;1289;53.488;10.006;2023-12-29T06:25:42;10.57;;;4.13;;
2558;SDS011;1289;53.488;10.006;2023-12-29T06:28:08;7.70;;;4.00;;
2558;SDS011;1289;53.488;10.006;2023-12-29T06:30:35;7.20;;;4.87;;
2558;SDS011;1289;53.488;10.006;2023-12-29T06:33:02;5.87;;;4.87;;
2558;SDS011;1289;53.488;10.006;2023-12-29T06:35:29;6.63;;;4.47;;
2558;SDS011;1289;53.488;10.006;2023-12-29T06:37:57;6.80;;;4.20;;
2558;SDS011;1289;53.488;10.006;2023-12-29T06:40:23;7.80;;;4.57;;
2558;SDS011;1289;53.488;10.006;2023-12-29T06:42:50;7.50;;;4.40;;
2558;SDS011;1289;53.488;10.006;2023-12-29T06:45:17;5.23;;;4.67;;
2558;SDS011;1289;53.488;10.006;2023-12-29T06:47:43;9.07;;;4.43;;
2558;SDS011;1289;53.488;10.006;2023-12-29T06:50:10;11.77;;;4.47;;
2558;SDS011;1289;53.488;10.006;2023-12-29T06:52:37;5.43;;;4.60;;
2558;SDS011;1289;53.488;10.006;2023-12-29T06:55:06;7.53;;;4.20;;
2558;SDS011;1289;53.488;10.006;2023-12-29T06:57:33;12.57;;;4.57;;
2558;SDS011;1289;53.488;10.006;2023-12-29T07:00:00;6.60;;;4.33;;
2558;SDS011;1289;53.488;10.006;2023-12-29T07:02:27;10.20;;;4.30;;
2558;SDS011;1289;53.488;10.006;2023-12-29T07:04:53;9.47;;;4.73;;
2558;SDS011;1289;53.488;10.006;2023-12-29T07:07:20;7.00;;;5.10;;
2558;SDS011;1289;53.488;10.006;2023-12-29T07:09:46;8.03;;;4.13;;
2558;SDS011;1289;53.488;10.006;2023-12-29T07:12:14;8.23;;;4.33;;
2558;SDS011;1289;53.488;10.006;2023-12-29T07:14:42;8.50;;;4.33;;
2558;SDS011;1289;53.488;10.006;2023-12-29T07:17:08;10.40;;;4.43;;
2558;SDS011;1289;53.488;10.006;2023-12-29T07:19:35;7.70;;;4.23;;
2558;SDS011;1289;53.488;10.006;2023-12-29T07:22:03;8.20;;;4.80;;
2558;SDS011;1289;53.488;10.006;2023-12-29T07:24:31;6.20;;;4.63;;
2558;SDS011;1289;53.488;10.006;2023-12-29T07:26:58;9.30;;;5.00;;
2558;SDS011;1289;53.488;10.006;2023-12-29T07:29:26;8.50;;;5.10;;
2558;SDS011;1289;53.488;10.006;2023-12-29T07:31:53;8.80;;;4.73;;
2558;SDS011;1289;53.488;10.006;2023-12-29T07:34:20;8.93;;;4.60;;
2558;SDS011;1289;53.488;10.006;2023-12-29T07:36:47;11.70;;;4.50;;
2558;SDS011;1289;53.488;10.006;2023-12-29T07:39:14;11.50;;;4.60;;
2558;SDS011;1289;53.488;10.006;2023-12-29T07:41:40;10.30;;;5.00;;
2558;SDS011;1289;53.488;10.006;2023-12-29T07:44:08;9.33;;;4.80;;
2558;SDS011;1289;53.488;10.006;2023-12-29T07:46:36;7.80;;;4.50;;
2558;SDS011;1289;53.488;10.006;2023-12-29T07:49:03;8.07;;;4.70;;
2558;SDS011;1289;53.488;10.006;2023-12-29T07:51:30;15.53;;;5.00;;
2558;SDS011;1289;53.488;10.006;2023-12-29T07:53:58;10.80;;;4.70;;
2558;SDS011;1289;53.488;10.006;2023-12-29T07:56:25;14.73;;;5.47;;
2558;SDS011;1289;53.488;10.006;2023-12-29T07:58:51;7.47;;;4.03;;
2558;SDS011;1289;53.488;10.006;2023-12-29T08:01:18;11.30;;;4.80;;
2558;SDS011;1289;53.488;10.006;2023-12-29T08:03:46;10.83;;;4.20;;
2558;SDS011;1289;53.488;10.006;2023-12-29T08:06:12;13.77;;;4.57;;
2558;SDS011;1289;53.488;10.006;2023-12-29T08:08:39;6.43;;;4.10;;
2558;SDS011;1289;53.488;10.006;2023-12-29T08:11:06;4.60;;;3.90;;
2558;SDS011;1289;53.488;10.006;2023-12-29T08:13:39;13.97;;;5.13;;
2558;SDS011;1289;53.488;10.006;2023-12-29T08:16:06;8.60;;;4.20;;
2558;SDS011;1289;53.488;10.006;2023-12-29T08:18:33;8.23;;;4.53;;
2558;SDS011;1289;53.488;10.006;2023-12-29T08:21:01;17.13;;;4.97;;
2558;SDS011;1289;53.488;10.006;2023-12-29T08:23:27;13.80;;;5.30;;
2558;SDS011;1289;53.488;10.006;2023-12-29T08:25:55;5.43;;;3.50;;
2558;SDS011;1289;53.488;10.006;2023-12-29T08:28:22;9.17;;;4.87;;
2558;SDS011;1289;53.488;10.006;2023-12-29T08:30:49;11.50;;;4.93;;
2558;SDS011;1289;53.488;10.006;2023-12-29T08:33:15;17.40;;;4.40;;
2558;SDS011;1289;53.488;10.006;2023-12-29T08:35:42;10.07;;;4.07;;
2558;SDS011;1289;53.488;10.006;2023-12-29T08:38:13;9.17;;;3.97;;
2558;SDS011;1289;53.488;10.006;2023-12-29T08:40:40;7.30;;;3.77;;
2558;SDS011;1289;53.488;10.006;2023-12-29T08:43:07;6.70;;;3.80;;
2558;SDS011;1289;53.488;10.006;2023-12-29T08:45:34;7.10;;;4.03;;
2558;SDS011;1289;53.488;10.006;2023-12-29T08:48:00;7.70;;;4.53;;
2558;SDS011;1289;53.488;10.006;2023-12-29T08:50:28;11.23;;;4.17;;
2558;SDS011;1289;53.488;10.006;2023-12-29T08:52:54;9.10;;;4.47;;
2558;SDS011;1289;53.488;10.006;2023-12-29T08:55:22;10.60;;;3.87;;
2558;SDS011;1289;53.488;10.006;2023-12-29T08:57:49;5.90;;;4.30;;
2558;SDS011;1289;53.488;10.006;2023-12-29T09:00:16;12.10;;;7.20;;
2558;SDS011;1289;53.488;10.006;2023-12-29T09:02:42;11.23;;;4.03;;
2558;SDS011;1289;53.488;10.006;2023-12-29T09:05:09;6.40;;;4.63;;
2558;SDS011;1289;53.488;10.006;2023-12-29T09:07:36;5.20;;;4.20;;
2558;SDS011;1289;53.488;10.006;2023-12-29T09:10:03;7.47;;;4.03;;
2558;SDS011;1289;53.488;10.006;2023-12-29T09:12:34;9.03;;;4.37;;
2558;SDS011;1289;53.488;10.006;2023-12-29T09:15:01;9.57;;;4.70;;
2558;SDS011;1289;53.488;10.006;2023-12-29T09:17:27;7.30;;;4.07;;
2558;SDS011;1289;53.488;10.006;2023-12-29T09:19:54;11.47;;;4.00;;
2558;SDS011;1289;53.488;10.006;2023-12-29T09:22:21;12.00;;;5.33;;
2558;SDS011;1289;53.488;10.006;2023-12-29T09:24:47;8.63;;;4.10;;
2558;SDS011;1289;53.488;10.006;2023-12-29T09:27:14;10.17;;;4.27;;
2558;SDS011;1289;53.488;10.006;2023-12-29T09:29:42;9.47;;;4.00;;
2558;SDS011;1289;53.488;10.006;2023-12-29T09:32:09;10.13;;;3.90;;
2558;SDS011;1289;53.488;10.006;2023-12-29T09:34:35;5.90;;;4.30;;
2558;SDS011;1289;53.488;10.006;2023-12-29T09:37:02;6.33;;;3.63;;
2558;SDS011;1289;53.488;10.006;2023-12-29T09:39:29;7.10;;;3.37;;
2558;SDS011;1289;53.488;10.006;2023-12-29T09:41:57;13.50;;;4.17;;
2558;SDS011;1289;53.488;10.006;2023-12-29T09:44:25;9.73;;;5.37;;
2558;SDS011;1289;53.488;10.006;2023-12-29T09:46:55;6.03;;;4.60;;
2558;SDS011;1289;53.488;10.006;2023-12-29T09:49:26;9.43;;;4.80;;
2558;SDS011;1289;53.488;10.006;2023-12-29T09:51:53;9.43;;;5.67;;
2558;SDS011;1289;53.488;10.006;2023-12-29T09:54:20;8.30;;;4.10;;
2558;SDS011;1289;53.488;10.006;2023-12-29T09:56:48;8.47;;;4.60;;
2558;SDS011;1289;53.488;10.006;2023-12-29T09:59:15;11.20;;;4.07;;
2558;SDS011;1289;53.488;10.006;2023-12-29T10:01:43;10.90;;;4.43;;
2558;SDS011;1289;53.488;10.006;2023-12-29T10:04:12;13.07;;;4.67;;
2558;SDS011;1289;53.488;10.006;2023-12-29T10:06:41;8.03;;;4.20;;
2558;SDS011;1289;53.488;10.006;2023-12-29T10:09:10;12.43;;;4.60;;
2558;SDS011;1289;53.488;10.006;2023-12-29T10:11:38;13.50;;;5.97;;
2558;SDS011;1289;53.488;10.006;2023-12-29T10:14:09;9.37;;;3.73;;
2558;SDS011;1289;53.488;10.006;2023-12-29T10:16:44;7.17;;;3.83;;
2558;SDS011;1289;53.488;10.006;2023-12-29T10:19:15;8.77;;;3.80;;
2558;SDS011;1289;53.488;10.006;2023-12-29T10:21:55;12.73;;;6.00;;
2558;SDS011;1289;53.488;10.006;2023-12-29T10:24:24;8.60;;;3.63;;
2558;SDS011;1289;53.488;10.006;2023-12-29T10:26:51;7.90;;;3.60;;
2558;SDS011;1289;53.488;10.006;2023-12-29T10:29:18;4.87;;;4.47;;
2558;SDS011;1289;53.488;10.006;2023-12-29T10:31:46;7.43;;;4.00;;
2558;SDS011;1289;53.488;10.006;2023-12-29T10:34:20;8.47;;;3.93;;
2558;SDS011;1289;53.488;10.006;2023-12-29T10:36:53;10.43;;;4.20;;
2558;SDS011;1289;53.488;10.006;2023-12-29T10:39:20;10.33;;;4.10;;
2558;SDS011;1289;53.488;10.006;2023-12-29T10:41:46;6.10;;;3.87;;
2558;SDS011;1289;53.488;10.006;2023-12-29T10:44:13;11.93;;;4.00;;
2558;SDS011;1289;53.488;10.006;2023-12-29T10:46:39;6.67;;;3.67;;
2558;SDS011;1289;53.488;10.006;2023-12-29T10:49:06;10.90;;;4.50;;
2558;SDS011;1289;53.488;10.006;2023-12-29T10:51:34;7.23;;;3.90;;
2558;SDS011;1289;53.488;10.006;2023-12-29T10:54:02;8.90;;;4.13;;
2558;SDS011;1289;53.488;10.006;2023-12-29T10:56:29;4.20;;;3.63;;
2558;SDS011;1289;53.488;10.006;2023-12-29T10:58:59;5.07;;;3.50;;
2558;SDS011;1289;53.488;10.006;2023-12-29T11:01:27;10.37;;;4.30;;
2558;SDS011;1289;53.488;10.006;2023-12-29T11:03:57;6.03;;;3.80;;
2558;SDS011;1289;53.488;10.006;2023-12-29T11:06:26;6.00;;;4.17;;
2558;SDS011;1289;53.488;10.006;2023-12-29T11:08:54;7.70;;;4.10;;
2558;SDS011;1289;53.488;10.006;2023-12-29T11:11:21;5.20;;;3.60;;
2558;SDS011;1289;53.488;10.006;2023-12-29T11:13:47;6.30;;;3.30;;
2558;SDS011;1289;53.488;10.006;2023-12-29T11:16:14;8.37;;;4.17;;
2558;SDS011;1289;53.488;10.006;2023-12-29T11:18:43;5.90;;;2.83;;
2558;SDS011;1289;53.488;10.006;2023-12-29T11:21:10;6.80;;;3.60;;
2558;SDS011;1289;53.488;10.006;2023-12-29T11:23:38;7.30;;;4.70;;
2558;SDS011;1289;53.488;10.006;2023-12-29T11:26:06;12.33;;;4.20;;
2558;SDS011;1289;53.488;10.006;2023-12-29T11:28:33;9.47;;;4.40;;
2558;SDS011;1289;53.488;10.006;2023-12-29T11:31:00;8.90;;;3.53;;
2558;SDS011;1289;53.488;10.006;2023-12-29T11:33:27;11.23;;;4.20;;
2558;SDS011;1289;53.488;10.006;2023-12-29T11:35:59;5.13;;;3.20;;
2558;SDS011;1289;53.488;10.006;2023-12-29T11:38:41;9.50;;;3.43;;
2558;SDS011;1289;53.488;10.006;2023-12-29T11:41:19;5.70;;;3.63;;
2558;SDS011;1289;53.488;10.006;2023-12-29T11:43:55;4.90;;;3.37;;
2558;SDS011;1289;53.488;10.006;2023-12-29T11:46:32;5.40;;;3.90;;
2558;SDS011;1289;53.488;10.006;2023-12-29T11:48:59;8.00;;;3.77;;
2558;SDS011;1289;53.488;10.006;2023-12-29T11:51:29;6.40;;;4.80;;
2558;SDS011;1289;53.488;10.006;2023-12-29T11:53:57;4.77;;;4.00;;
2558;SDS011;1289;53.488;10.006;2023-12-29T11:56:26;9.67;;;4.30;;
2558;SDS011;1289;53.488;10.006;2023-12-29T11:58:56;4.17;;;3.40;;
2558;SDS011;1289;53.488;10.006;2023-12-29T12:01:33;5.50;;;4.17;;
2558;SDS011;1289;53.488;10.006;2023-12-29T12:04:00;5.03;;;3.53;;
2558;SDS011;1289;53.488;10.006;2023-12-29T12:06:36;5.30;;;4.23;;
2558;SDS011;1289;53.488;10.006;2023-12-29T12:09:15;5.23;;;3.57;;
2558;SDS011;1289;53.488;10.006;2023-12-29T12:11:44;10.00;;;3.53;;
2558;SDS011;1289;53.488;10.006;2023-12-29T12:17:26;4.07;;;3.70;;
2558;SDS011;1289;53.488;10.006;2023-12-29T12:19:53;6.30;;;3.43;;
2558;SDS011;1289;53.488;10.006;2023-12-29T12:22:23;10.40;;;4.07;;
2558;SDS011;1289;53.488;10.006;2023-12-29T12:24:50;11.53;;;3.60;;
2558;SDS011;1289;53.488;10.006;2023-12-29T12:27:23;4.67;;;3.30;;
2558;SDS011;1289;53.488;10.006;2023-12-29T12:29:51;6.57;;;3.60;;
2558;SDS011;1289;53.488;10.006;2023-12-29T12:32:21;4.70;;;3.30;;
2558;SDS011;1289;53.488;10.006;2023-12-29T12:34:47;7.97;;;3.97;;
2558;SDS011;1289;53.488;10.006;2023-12-29T12:37:18;11.23;;;4.27;;
2558;SDS011;1289;53.488;10.006;2023-12-29T12:39:45;4.00;;;3.67;;
2558;SDS011;1289;53.488;10.006;2023-12-29T12:42:12;6.63;;;3.30;;
2558;SDS011;1289;53.488;10.006;2023-12-29T12:44:41;4.10;;;3.70;;
2558;SDS011;1289;53.488;10.006;2023-12-29T12:47:08;8.20;;;3.00;;
2558;SDS011;1289;53.488;10.006;2023-12-29T12:49:36;7.00;;;3.00;;
2558;SDS011;1289;53.488;10.006;2023-12-29T12:52:03;3.20;;;2.90;;
2558;SDS011;1289;53.488;10.006;2023-12-29T12:54:30;3.60;;;3.30;;
2558;SDS011;1289;53.488;10.006;2023-12-29T12:56:57;6.10;;;3.40;;
2558;SDS011;1289;53.488;10.006;2023-12-29T12:59:23;4.57;;;2.93;;
2558;SDS011;1289;53.488;10.006;2023-12-29T13:01:51;4.90;;;3.20;;
2558;SDS011;1289;53.488;10.006;2023-12-29T13:04:18;4.60;;;3.10;;
2558;SDS011;1289;53.488;10.006;2023-12-29T13:06:45;5.20;;;3.47;;
2558;SDS011;1289;53.488;10.006;2023-12-29T13:09:12;4.30;;;3.03;;
2558;SDS011;1289;53.488;10.006;2023-12-29T13:11:42;4.93;;;3.20;;
2558;SDS011;1289;53.488;10.006;2023-12-29T13:14:09;5.40;;;3.60;;
2558;SDS011;1289;53.488;10.006;2023-12-29T13:16:45;5.73;;;3.50;;
2558;SDS011;1289;53.488;10.006;2023-12-29T13:19:18;5.60;;;3.10;;
2558;SDS011;1289;53.488;10.006;2023-12-29T13:21:46;4.97;;;3.70;;
2558;SDS011;1289;53.488;10.006;2023-12-29T13:24:13;4.07;;;3.30;;
2558;SDS011;1289;53.488;10.006;2023-12-29T13:26:41;5.40;;;3.07;;
2558;SDS011;1289;53.488;10.006;2023-12-29T13:29:11;3.60;;;3.30;;
2558;SDS011;1289;53.488;10.006;2023-12-29T13:31:38;4.67;;;2.90;;
2558;SDS011;1289;53.488;10.006;2023-12-29T13:34:06;3.40;;;3.10;;
2558;SDS011;1289;53.488;10.006;2023-12-29T13:36:38;4.30;;;3.43;;
2558;SDS011;1289;53.488;10.006;2023-12-29T13:39:08;4.00;;;3.20;;
2558;SDS011;1289;53.488;10.006;2023-12-29T13:41:36;8.40;;;3.73;;
2558;SDS011;1289;53.488;10.006;2023-12-29T13:44:03;10.47;;;4.10;;
2558;SDS011;1289;53.488;10.006;2023-12-29T13:46:30;6.23;;;3.30;;
2558;SDS011;1289;53.488;10.006;2023-12-29T13:48:57;5.73;;;4.33;;
2558;SDS011;1289;53.488;10.006;2023-12-29T13:51:24;4.37;;;3.67;;
2558;SDS011;1289;53.488;10.006;2023-12-29T13:53:58;4.97;;;3.83;;
2558;SDS011;1289;53.488;10.006;2023-12-29T13:56:25;7.87;;;3.37;;
2558;SDS011;1289;53.488;10.006;2023-12-29T13:58:52;8.73;;;3.83;;
2558;SDS011;1289;53.488;10.006;2023-12-29T14:01:18;3.87;;;3.47;;
2558;SDS011;1289;53.488;10.006;2023-12-29T14:03:46;7.30;;;3.33;;
2558;SDS011;1289;53.488;10.006;2023-12-29T14:06:18;4.30;;;3.63;;
2558;SDS011;1289;53.488;10.006;2023-12-29T14:08:46;3.97;;;3.57;;
2558;SDS011;1289;53.488;10.006;2023-12-29T14:11:15;8.07;;;4.47;;
2558;SDS011;1289;53.488;10.006;2023-12-29T14:13:41;5.00;;;3.60;;
2558;SDS011;1289;53.488;10.006;2023-12-29T14:16:08;5.20;;;3.40;;
2558;SDS011;1289;53.488;10.006;2023-12-29T14:18:40;5.30;;;4.13;;
2558;SDS011;1289;53.488;10.006;2023-12-29T14:23:59;6.13;;;3.70;;
2558;SDS011;1289;53.488;10.006;2023-12-29T14:26:27;8.17;;;4.60;;
2558;SDS011;1289;53.488;10.006;2023-12-29T14:29:04;6.97;;;3.53;;
2558;SDS011;1289;53.488;10.006;2023-12-29T14:31:31;7.70;;;3.97;;
2558;SDS011;1289;53.488;10.006;2023-12-29T14:34:00;5.50;;;3.63;;
2558;SDS011;1289;53.488;10.006;2023-12-29T14:36:27;5.20;;;3.50;;
2558;SDS011;1289;53.488;10.006;2023-12-29T14:38:53;4.77;;;3.80;;
2558;SDS011;1289;53.488;10.006;2023-12-29T14:41:20;8.10;;;4.10;;
2558;SDS011;1289;53.488;10.006;2023-12-29T14:43:48;8.30;;;3.70;;
2558;SDS011;1289;53.488;10.006;2023-12-29T14:46:14;6.60;;;4.03;;
2558;SDS011;1289;53.488;10.006;2023-12-29T14:48:41;5.80;;;3.57;;
2558;SDS011;1289;53.488;10.006;2023-12-29T14:51:08;7.50;;;3.60;;
2558;SDS011;1289;53.488;10.006;2023-12-29T14:53:35;7.27;;;3.73;;
2558;SDS011;1289;53.488;10.006;2023-12-29T14:56:02;3.80;;;3.40;;
2558;SDS011;1289;53.488;10.006;2023-12-29T14:58:29;12.53;;;5.80;;
2558;SDS011;1289;53.488;10.006;2023-12-29T15:00:57;6.70;;;3.73;;
2558;SDS011;1289;53.488;10.006;2023-12-29T15:03:24;4.70;;;3.70;;
2558;SDS011;1289;53.488;10.006;2023-12-29T15:05:51;10.50;;;4.40;;
2558;SDS011;1289;53.488;10.006;2023-12-29T15:08:17;10.30;;;3.57;;
2558;SDS011;1289;53.488;10.006;2023-12-29T15:10:44;5.33;;;3.57;;